createdAt,value
2022-11-14T00:00:10.060Z,94812.56
2022-11-14T00:01:11.078Z,94814.84
2022-11-14T00:02:07.669Z,94819.03
2022-11-14T00:03:05.377Z,94812.94
2022-11-14T00:04:01.878Z,94810.91
2022-11-14T00:04:58.337Z,94813.59
2022-11-14T00:05:54.812Z,94814.19
2022-11-14T00:06:51.249Z,94820.47
2022-11-14T00:07:47.749Z,94812.44
2022-11-14T00:08:44.675Z,94803.38
2022-11-14T00:09:43.028Z,94811.06
2022-11-14T00:10:39.453Z,94819.13
2022-11-14T00:11:35.916Z,94818.84
2022-11-14T00:12:32.546Z,94819.19
2022-11-14T00:13:29.175Z,94816.81
2022-11-14T00:14:25.643Z,94815.84
2022-11-14T00:15:22.115Z,94810.28
2022-11-14T00:16:18.585Z,94805.59
2022-11-14T00:17:15.015Z,94814.59
2022-11-14T00:18:11.607Z,94813.28
2022-11-14T00:19:08.110Z,94810.56
2022-11-14T00:20:05.904Z,94811.91
2022-11-14T00:21:02.402Z,94737.63
2022-11-14T00:22:00.316Z,94807.44
2022-11-14T00:22:57.399Z,94809.03
2022-11-14T00:23:53.981Z,94807.53
2022-11-14T00:24:50.402Z,94806.97
2022-11-14T00:25:47.175Z,94810.13
2022-11-14T00:26:43.692Z,94804.81
2022-11-14T00:27:40.109Z,94802.75
2022-11-14T00:28:36.551Z,94799.78
2022-11-14T00:29:33.002Z,94799.63
2022-11-14T00:30:29.467Z,94802.78
2022-11-14T00:31:25.940Z,94801.75
2022-11-14T00:32:22.639Z,94804.31
2022-11-14T00:33:20.702Z,94802.44
2022-11-14T00:34:17.448Z,94795.59
2022-11-14T00:35:13.877Z,94806.13
2022-11-14T00:36:10.313Z,94796.91
2022-11-14T00:37:06.925Z,94797.91
2022-11-14T00:38:03.416Z,94805.84
2022-11-14T00:38:59.876Z,94801.41
2022-11-14T00:39:56.319Z,94802.44
2022-11-14T00:40:52.785Z,94803.69
2022-11-14T00:41:49.231Z,94802.09
2022-11-14T00:42:45.694Z,94799.66
2022-11-14T00:43:42.148Z,94798.88
2022-11-14T00:44:38.624Z,94800.94
2022-11-14T00:45:35.046Z,94800.38
2022-11-14T00:46:31.485Z,94802.88
2022-11-14T00:47:30.755Z,94810.00
2022-11-14T00:48:27.542Z,94805.00
2022-11-14T00:49:24.283Z,94806.03
2022-11-14T00:50:20.745Z,94803.38
2022-11-14T00:51:17.230Z,94806.41
2022-11-14T00:52:13.675Z,94804.00
2022-11-14T00:53:10.315Z,94804.38
2022-11-14T00:54:06.833Z,94801.06
2022-11-14T00:55:03.576Z,94810.81
2022-11-14T00:56:00.043Z,94805.00
2022-11-14T00:56:56.489Z,94810.09
2022-11-14T00:57:52.973Z,94801.66
2022-11-14T00:58:49.566Z,94801.16
2022-11-14T00:59:46.042Z,94799.63
2022-11-14T01:00:42.576Z,94800.94
2022-11-14T01:01:39.052Z,94795.34
2022-11-14T01:02:35.503Z,94798.78
2022-11-14T01:03:31.948Z,94805.03
2022-11-14T01:04:28.462Z,94803.31
2022-11-14T01:05:25.680Z,94800.09
2022-11-14T01:06:22.247Z,94810.16
2022-11-14T01:07:18.773Z,94803.81
2022-11-14T01:08:16.312Z,94806.19
2022-11-14T01:09:12.864Z,94808.84
2022-11-14T01:10:09.752Z,94802.25
2022-11-14T01:11:11.841Z,94798.84
2022-11-14T01:12:08.283Z,94801.47
2022-11-14T01:13:04.716Z,94801.19
2022-11-14T01:14:01.181Z,94799.81
2022-11-14T01:14:57.638Z,94798.78
2022-11-14T01:15:55.109Z,94796.41
2022-11-14T01:16:51.551Z,94795.41
2022-11-14T01:17:48.014Z,94721.91
2022-11-14T01:18:44.517Z,94797.00
2022-11-14T01:19:40.989Z,94797.53
2022-11-14T01:20:41.203Z,94795.34
2022-11-14T01:21:37.747Z,94797.13
2022-11-14T01:22:34.274Z,94797.91
2022-11-14T01:23:30.869Z,94791.16
2022-11-14T01:24:27.967Z,94798.25
2022-11-14T01:25:24.435Z,94793.16
2022-11-14T01:26:20.921Z,94793.94
2022-11-14T01:27:17.474Z,94798.25
2022-11-14T01:28:16.427Z,94803.31
2022-11-14T01:29:12.879Z,94795.25
2022-11-14T01:30:09.869Z,94790.25
2022-11-14T01:31:09.357Z,94791.34
2022-11-14T01:32:06.475Z,94795.25
2022-11-14T01:33:03.736Z,94794.91
2022-11-14T01:34:00.176Z,94796.47
2022-11-14T01:34:56.652Z,94784.38
2022-11-14T01:35:53.092Z,94779.66
2022-11-14T01:36:49.572Z,94787.56
2022-11-14T01:37:46.128Z,94783.56
2022-11-14T01:38:42.571Z,94776.25
2022-11-14T01:39:39.020Z,94776.81
2022-11-14T01:40:40.869Z,94768.63
2022-11-14T01:41:37.319Z,94773.28
2022-11-14T01:42:33.816Z,94767.41
2022-11-14T01:43:31.543Z,94768.03
2022-11-14T01:44:57.259Z,94766.78
2022-11-14T01:46:03.006Z,94763.31
2022-11-14T01:46:59.531Z,94757.38
2022-11-14T01:47:56.014Z,94758.34
2022-11-14T01:48:54.117Z,94756.41
2022-11-14T01:49:53.780Z,94745.19
2022-11-14T01:50:53.673Z,94752.84
2022-11-14T01:51:51.890Z,94747.66
2022-11-14T01:52:48.407Z,94756.16
2022-11-14T01:53:45.957Z,94758.09
2022-11-14T01:54:45.768Z,94761.13
2022-11-14T01:55:42.240Z,94767.06
2022-11-14T01:56:42.002Z,94754.69
2022-11-14T01:57:42.052Z,94762.63
2022-11-14T01:58:41.839Z,94762.88
2022-11-14T01:59:39.912Z,94752.88
2022-11-14T02:00:36.499Z,94758.03
2022-11-14T02:01:35.810Z,94750.91
2022-11-14T02:02:32.415Z,94754.56
2022-11-14T02:03:29.012Z,94749.81
2022-11-14T02:04:27.418Z,94745.75
2022-11-14T02:05:24.063Z,94747.81
2022-11-14T02:06:21.629Z,94747.81
2022-11-14T02:07:18.788Z,94740.75
2022-11-14T02:08:15.877Z,94742.34
2022-11-14T02:09:12.445Z,94745.50
2022-11-14T02:10:11.264Z,94746.50
2022-11-14T02:11:10.092Z,94751.47
2022-11-14T02:12:08.739Z,94750.41
2022-11-14T02:13:05.475Z,94748.88
2022-11-14T02:14:02.090Z,94753.06
2022-11-14T02:14:59.220Z,94749.16
2022-11-14T02:15:55.970Z,94749.97
2022-11-14T02:17:22.256Z,94743.94
2022-11-14T02:18:08.963Z,94744.69
2022-11-14T02:19:05.719Z,94748.91
2022-11-14T02:20:05.754Z,94743.63
2022-11-14T02:21:02.309Z,94745.41
2022-11-14T02:21:58.754Z,94741.47
2022-11-14T02:22:55.284Z,94741.41
2022-11-14T02:23:51.797Z,94738.25
2022-11-14T02:24:48.257Z,94741.41
2022-11-14T02:25:44.714Z,94744.03
2022-11-14T02:26:41.711Z,94745.31
2022-11-14T02:27:39.262Z,94740.13
2022-11-14T02:28:35.755Z,94743.59
2022-11-14T02:29:33.274Z,94748.56
2022-11-14T02:30:29.719Z,94740.69
2022-11-14T02:31:26.158Z,94737.28
2022-11-14T02:32:22.650Z,94749.94
2022-11-14T02:33:19.101Z,94739.97
2022-11-14T02:34:19.957Z,94741.88
2022-11-14T02:35:16.563Z,94738.19
2022-11-14T02:36:12.998Z,94751.06
2022-11-14T02:37:09.663Z,94743.13
2022-11-14T02:38:06.435Z,94743.34
2022-11-14T02:39:02.950Z,94748.59
2022-11-14T02:39:59.440Z,94750.72
2022-11-14T02:40:55.888Z,94744.91
2022-11-14T02:41:52.335Z,94744.38
2022-11-14T02:42:48.988Z,94746.00
2022-11-14T02:43:45.424Z,94743.38
2022-11-14T02:44:41.938Z,94742.31
2022-11-14T02:45:38.507Z,94746.31
2022-11-14T02:46:35.087Z,94743.63
2022-11-14T02:47:31.529Z,94739.69
2022-11-14T02:48:28.219Z,94739.75
2022-11-14T02:49:24.999Z,94747.91
2022-11-14T02:50:21.505Z,94736.56
2022-11-14T02:51:17.972Z,94733.91
2022-11-14T02:52:14.393Z,94734.16
2022-11-14T02:53:10.865Z,94731.28
2022-11-14T02:54:07.497Z,94740.53
2022-11-14T02:55:04.651Z,94737.91
2022-11-14T02:56:01.373Z,94743.16
2022-11-14T02:56:57.795Z,94746.09
2022-11-14T02:57:54.349Z,94736.59
2022-11-14T02:58:50.810Z,94737.59
2022-11-14T02:59:47.291Z,94736.34
2022-11-14T03:01:05.932Z,94731.06
2022-11-14T03:02:00.282Z,94737.91
2022-11-14T03:02:56.756Z,94730.22
2022-11-14T03:03:53.211Z,94731.03
2022-11-14T03:04:49.923Z,94723.88
2022-11-14T03:05:46.359Z,94733.81
2022-11-14T03:06:42.830Z,94727.25
2022-11-14T03:07:39.283Z,94725.41
2022-11-14T03:08:35.724Z,94723.91
2022-11-14T03:09:32.260Z,94717.59
2022-11-14T03:10:28.691Z,94724.72
2022-11-14T03:11:25.135Z,94713.94
2022-11-14T03:12:21.677Z,94714.44
2022-11-14T03:13:18.310Z,94718.34
2022-11-14T03:14:14.969Z,94716.03
2022-11-14T03:15:11.487Z,94714.19
2022-11-14T03:16:09.320Z,94720.47
2022-11-14T03:17:05.776Z,94713.31
2022-11-14T03:18:02.440Z,94715.34
2022-11-14T03:18:59.030Z,94717.97
2022-11-14T03:19:55.454Z,94711.94
2022-11-14T03:20:51.931Z,94709.91
2022-11-14T03:21:48.401Z,94707.06
2022-11-14T03:22:44.883Z,94714.94
2022-11-14T03:23:41.809Z,94705.38
2022-11-14T03:24:38.248Z,94711.25
2022-11-14T03:25:34.717Z,94713.66
2022-11-14T03:26:31.203Z,94713.53
2022-11-14T03:27:27.928Z,94716.69
2022-11-14T03:28:24.400Z,94719.63
2022-11-14T03:29:21.039Z,94721.53
2022-11-14T03:30:17.644Z,94715.50
2022-11-14T03:31:14.540Z,94723.09
2022-11-14T03:32:10.987Z,94724.16
2022-11-14T03:33:07.408Z,94726.59
2022-11-14T03:34:03.937Z,94721.81
2022-11-14T03:35:00.439Z,94720.25
2022-11-14T03:35:57.021Z,94725.00
2022-11-14T03:36:53.524Z,94731.84
2022-11-14T03:37:53.835Z,94723.38
2022-11-14T03:38:52.652Z,94723.91
2022-11-14T03:39:49.176Z,94723.94
2022-11-14T03:40:45.618Z,94720.78
2022-11-14T03:41:42.069Z,94725.50
2022-11-14T03:42:38.513Z,94722.88
2022-11-14T03:43:35.154Z,94722.34
2022-11-14T03:44:31.582Z,94724.44
2022-11-14T03:45:28.374Z,94721.56
2022-11-14T03:46:24.810Z,94726.09
2022-11-14T03:47:21.258Z,94715.81
2022-11-14T03:48:18.110Z,94721.63
2022-11-14T03:49:14.551Z,94730.84
2022-11-14T03:50:11.000Z,94720.34
2022-11-14T03:51:07.455Z,94718.75
2022-11-14T03:52:03.967Z,94721.97
2022-11-14T03:53:00.435Z,94723.00
2022-11-14T03:53:56.917Z,94721.38
2022-11-14T03:54:53.386Z,94722.13
2022-11-14T03:55:50.120Z,94723.44
2022-11-14T03:56:46.584Z,94719.69
2022-11-14T03:57:43.022Z,94716.03
2022-11-14T03:58:39.528Z,94727.13
2022-11-14T03:59:35.985Z,94723.50
2022-11-14T04:00:32.491Z,94723.50
2022-11-14T04:01:29.418Z,94728.50
2022-11-14T04:02:25.914Z,94720.38
2022-11-14T04:03:23.161Z,94722.25
2022-11-14T04:04:19.716Z,94718.84
2022-11-14T04:05:16.407Z,94712.78
2022-11-14T04:06:12.845Z,94716.22
2022-11-14T04:07:09.416Z,94714.41
2022-11-14T04:08:06.663Z,94712.03
2022-11-14T04:09:03.155Z,94711.75
2022-11-14T04:09:59.628Z,94710.97
2022-11-14T04:10:56.099Z,94711.72
2022-11-14T04:11:52.535Z,94711.72
2022-11-14T04:12:49.903Z,94710.69
2022-11-14T04:13:46.356Z,94707.56
2022-11-14T04:14:42.835Z,94709.09
2022-11-14T04:15:39.272Z,94705.94
2022-11-14T04:16:35.734Z,94703.56
2022-11-14T04:17:37.054Z,94703.06
2022-11-14T04:18:36.021Z,94700.44
2022-11-14T04:19:32.462Z,94701.22
2022-11-14T04:20:28.973Z,94700.72
2022-11-14T04:21:25.455Z,94706.22
2022-11-14T04:22:22.023Z,94703.06
2022-11-14T04:23:19.007Z,94706.22
2022-11-14T04:24:15.436Z,94700.16
2022-11-14T04:25:11.864Z,94703.34
2022-11-14T04:26:08.331Z,94703.88
2022-11-14T04:27:04.776Z,94709.41
2022-11-14T04:28:01.207Z,94699.94
2022-11-14T04:28:57.734Z,94711.25
2022-11-14T04:29:54.177Z,94701.00
2022-11-14T04:30:50.615Z,94700.22
2022-11-14T04:31:47.056Z,94703.63
2022-11-14T04:32:45.085Z,94706.50
2022-11-14T04:33:41.599Z,94707.03
2022-11-14T04:34:38.052Z,94711.50
2022-11-14T04:35:34.501Z,94699.16
2022-11-14T04:36:31.011Z,94704.91
2022-11-14T04:37:28.042Z,94710.97
2022-11-14T04:38:24.663Z,94707.81
2022-11-14T04:39:21.091Z,94702.00
2022-11-14T04:40:17.567Z,94708.59
2022-11-14T04:41:14.074Z,94710.44
2022-11-14T04:42:10.647Z,94705.97
2022-11-14T04:43:07.132Z,94702.53
2022-11-14T04:44:03.557Z,94708.84
2022-11-14T04:45:00.069Z,94708.78
2022-11-14T04:45:56.634Z,94711.41
2022-11-14T04:46:53.214Z,94711.44
2022-11-14T04:47:49.863Z,94710.13
2022-11-14T04:48:46.331Z,94705.13
2022-11-14T04:49:42.787Z,94703.06
2022-11-14T04:50:39.292Z,94708.88
2022-11-14T04:51:35.822Z,94706.53
2022-11-14T04:52:32.267Z,94703.38
2022-11-14T04:53:28.730Z,94707.03
2022-11-14T04:54:25.158Z,94705.75
2022-11-14T04:55:21.751Z,94706.78
2022-11-14T04:56:18.235Z,94712.03
2022-11-14T04:57:14.752Z,94714.91
2022-11-14T04:58:11.218Z,94719.88
2022-11-14T04:59:07.981Z,94719.31
2022-11-14T05:00:04.744Z,94717.47
2022-11-14T05:01:07.098Z,94728.28
2022-11-14T05:02:03.617Z,94727.72
2022-11-14T05:03:00.304Z,94725.91
2022-11-14T05:03:56.824Z,94725.63
2022-11-14T05:04:53.270Z,94722.72
2022-11-14T05:05:50.062Z,94729.34
2022-11-14T05:06:46.674Z,94721.16
2022-11-14T05:07:43.147Z,94722.44
2022-11-14T05:08:39.601Z,94721.66
2022-11-14T05:09:36.862Z,94720.88
2022-11-14T05:10:33.396Z,94723.03
2022-11-14T05:11:32.935Z,94714.13
2022-11-14T05:12:29.360Z,94716.50
2022-11-14T05:13:25.849Z,94719.41
2022-11-14T05:14:22.291Z,94719.91
2022-11-14T05:15:18.720Z,94716.50
2022-11-14T05:16:15.302Z,94722.03
2022-11-14T05:17:11.739Z,94716.22
2022-11-14T05:18:08.207Z,94715.69
2022-11-14T05:19:04.713Z,94707.28
2022-11-14T05:20:01.173Z,94704.63
2022-11-14T05:20:58.384Z,94707.78
2022-11-14T05:21:54.840Z,94710.66
2022-11-14T05:22:55.257Z,94706.63
2022-11-14T05:23:51.710Z,94707.69
2022-11-14T05:24:48.192Z,94709.25
2022-11-14T05:25:44.680Z,94711.31
2022-11-14T05:26:41.127Z,94704.97
2022-11-14T05:27:37.595Z,94706.00
2022-11-14T05:28:34.130Z,94708.13
2022-11-14T05:29:30.745Z,94708.34
2022-11-14T05:30:27.219Z,94711.44
2022-11-14T05:31:23.655Z,94716.94
2022-11-14T05:32:20.121Z,94713.53
2022-11-14T05:33:16.565Z,94713.31
2022-11-14T05:34:13.012Z,94711.97
2022-11-14T05:35:09.476Z,94714.09
2022-11-14T05:36:07.002Z,94713.56
2022-11-14T05:37:04.092Z,94647.44
2022-11-14T05:38:01.841Z,94719.34
2022-11-14T05:38:58.388Z,94714.56
2022-11-14T05:39:54.854Z,94718.81
2022-11-14T05:40:51.289Z,94717.22
2022-11-14T05:41:47.728Z,94720.88
2022-11-14T05:42:44.249Z,94719.25
2022-11-14T05:43:41.060Z,94713.66
2022-11-14T05:44:37.474Z,94719.78
2022-11-14T05:45:33.927Z,94717.94
2022-11-14T05:46:30.373Z,94715.91
2022-11-14T05:47:26.802Z,94721.69
2022-11-14T05:48:23.314Z,94722.75
2022-11-14T05:49:22.086Z,94720.13
2022-11-14T05:50:18.779Z,94727.22
2022-11-14T05:51:15.306Z,94734.94
2022-11-14T05:52:11.859Z,94725.44
2022-11-14T05:53:08.428Z,94724.88
2022-11-14T05:54:05.033Z,94722.75
2022-11-14T05:55:01.505Z,94728.03
2022-11-14T05:56:04.760Z,94734.09
2022-11-14T05:57:01.233Z,94733.09
2022-11-14T05:57:58.607Z,94726.31
2022-11-14T05:58:55.032Z,94722.06
2022-11-14T05:59:51.468Z,94729.44
2022-11-14T06:00:53.619Z,94734.88
2022-11-14T06:01:50.786Z,94738.41
2022-11-14T06:02:47.289Z,94733.69
2022-11-14T06:03:45.059Z,94731.69
2022-11-14T06:04:41.525Z,94733.84
2022-11-14T06:05:37.997Z,94725.44
2022-11-14T06:06:34.472Z,94730.25
2022-11-14T06:07:31.072Z,94734.94
2022-11-14T06:08:28.567Z,94734.44
2022-11-14T06:09:25.355Z,94729.59
2022-11-14T06:10:21.819Z,94735.94
2022-11-14T06:11:19.553Z,94731.41
2022-11-14T06:12:16.015Z,94736.78
2022-11-14T06:13:12.516Z,94738.00
2022-11-14T06:14:11.012Z,94738.16
2022-11-14T06:15:07.983Z,94738.41
2022-11-14T06:16:09.357Z,94746.88
2022-11-14T06:17:05.791Z,94742.63
2022-11-14T06:18:02.298Z,94748.50
2022-11-14T06:18:58.789Z,94742.16
2022-11-14T06:19:55.249Z,94741.34
2022-11-14T06:20:51.728Z,94747.94
2022-11-14T06:21:48.207Z,94746.19
2022-11-14T06:22:44.695Z,94753.84
2022-11-14T06:23:41.420Z,94748.03
2022-11-14T06:24:37.977Z,94748.56
2022-11-14T06:25:34.465Z,94751.38
2022-11-14T06:26:31.830Z,94747.19
2022-11-14T06:27:28.289Z,94750.41
2022-11-14T06:28:24.718Z,94752.00
2022-11-14T06:29:21.219Z,94750.13
2022-11-14T06:30:17.749Z,94749.03
2022-11-14T06:31:14.231Z,94752.72
2022-11-14T06:32:10.698Z,94753.78
2022-11-14T06:33:07.150Z,94753.91
2022-11-14T06:34:04.789Z,94752.28
2022-11-14T06:35:01.398Z,94753.06
2022-11-14T06:35:59.362Z,94753.22
2022-11-14T06:36:55.871Z,94747.47
2022-11-14T06:37:52.368Z,94748.75
2022-11-14T06:38:49.013Z,94750.19
2022-11-14T06:39:45.469Z,94750.16
2022-11-14T06:40:41.990Z,94750.13
2022-11-14T06:41:38.472Z,94747.59
2022-11-14T06:42:34.934Z,94749.97
2022-11-14T06:43:35.218Z,94745.97
2022-11-14T06:44:31.690Z,94745.97
2022-11-14T06:45:28.186Z,94744.66
2022-11-14T06:46:24.748Z,94742.56
2022-11-14T06:47:21.196Z,94739.03
2022-11-14T06:48:17.639Z,94736.97
2022-11-14T06:49:14.080Z,94744.19
2022-11-14T06:50:10.599Z,94736.47
2022-11-14T06:51:07.139Z,94742.22
2022-11-14T06:52:03.659Z,94736.56
2022-11-14T06:53:00.121Z,94737.41
2022-11-14T06:53:57.480Z,94737.56
2022-11-14T06:54:53.928Z,94735.22
2022-11-14T06:55:56.578Z,94743.50
2022-11-14T06:56:53.075Z,94738.41
2022-11-14T06:57:55.567Z,94735.44
2022-11-14T06:58:52.127Z,94736.47
2022-11-14T06:59:48.570Z,94725.28
2022-11-14T07:00:45.123Z,94729.97
2022-11-14T07:01:41.671Z,94725.00
2022-11-14T07:02:38.140Z,94729.00
2022-11-14T07:03:34.978Z,94729.63
2022-11-14T07:04:31.468Z,94724.94
2022-11-14T07:05:27.919Z,94726.88
2022-11-14T07:06:25.830Z,94729.63
2022-11-14T07:07:22.312Z,94724.81
2022-11-14T07:08:30.237Z,94725.00
2022-11-14T07:09:26.847Z,94723.06
2022-11-14T07:10:23.280Z,94724.69
2022-11-14T07:11:24.230Z,94723.47
2022-11-14T07:12:20.698Z,94719.28
2022-11-14T07:13:17.136Z,94719.44
2022-11-14T07:14:13.766Z,94721.91
2022-11-14T07:15:10.461Z,94715.13
2022-11-14T07:16:07.120Z,94719.50
2022-11-14T07:17:03.618Z,94721.19
2022-11-14T07:18:00.065Z,94716.47
2022-11-14T07:18:59.587Z,94723.97
2022-11-14T07:19:56.036Z,94722.47
2022-11-14T07:21:03.340Z,94724.03
2022-11-14T07:21:59.890Z,94717.59
2022-11-14T07:22:56.344Z,94718.81
2022-11-14T07:23:52.829Z,94724.16
2022-11-14T07:24:49.327Z,94721.16
2022-11-14T07:25:45.780Z,94724.03
2022-11-14T07:26:42.289Z,94652.91
2022-11-14T07:27:38.780Z,94725.41
2022-11-14T07:28:36.483Z,94724.41
2022-11-14T07:29:32.942Z,94723.94
2022-11-14T07:30:29.559Z,94726.56
2022-11-14T07:31:26.054Z,94731.06
2022-11-14T07:32:22.496Z,94729.75
2022-11-14T07:33:18.972Z,94725.81
2022-11-14T07:34:15.421Z,94734.28
2022-11-14T07:35:11.898Z,94736.38
2022-11-14T07:36:08.995Z,94726.09
2022-11-14T07:37:05.521Z,94739.31
2022-11-14T07:38:03.106Z,94723.66
2022-11-14T07:38:59.612Z,94718.72
2022-11-14T07:39:56.050Z,94716.25
2022-11-14T07:41:00.105Z,94722.31
2022-11-14T07:41:56.811Z,94725.13
2022-11-14T07:42:57.009Z,94723.72
2022-11-14T07:43:53.530Z,94716.31
2022-11-14T07:44:49.958Z,94715.97
2022-11-14T07:45:46.433Z,94714.75
2022-11-14T07:46:42.890Z,94718.28
2022-11-14T07:47:39.315Z,94717.03
2022-11-14T07:48:35.895Z,94714.06
2022-11-14T07:49:32.363Z,94722.13
2022-11-14T07:50:30.247Z,94720.53
2022-11-14T07:51:26.720Z,94717.59
2022-11-14T07:52:23.188Z,94713.50
2022-11-14T07:53:19.683Z,94718.50
2022-11-14T07:54:16.125Z,94717.44
2022-11-14T07:55:12.921Z,94714.56
2022-11-14T07:56:09.933Z,94713.56
2022-11-14T07:57:06.388Z,94715.28
2022-11-14T07:58:02.981Z,94711.94
2022-11-14T07:58:59.479Z,94709.06
2022-11-14T07:59:55.941Z,94721.72
2022-11-14T08:00:52.439Z,94709.91
2022-11-14T08:01:48.911Z,94708.53
2022-11-14T08:02:45.838Z,94715.69
2022-11-14T08:03:46.012Z,94718.25
2022-11-14T08:04:42.950Z,94714.22
2022-11-14T08:05:39.415Z,94715.97
2022-11-14T08:06:35.862Z,94709.38
2022-11-14T08:07:32.412Z,94712.63
2022-11-14T08:08:29.177Z,94716.88
2022-11-14T08:09:25.864Z,94712.22
2022-11-14T08:10:22.321Z,94707.66
2022-11-14T08:11:38.722Z,94705.88
2022-11-14T08:12:35.185Z,94714.00
2022-11-14T08:13:33.598Z,94712.38
2022-11-14T08:14:30.439Z,94707.91
2022-11-14T08:15:27.451Z,94704.16
2022-11-14T08:16:23.895Z,94710.47
2022-11-14T08:17:21.024Z,94713.22
2022-11-14T08:18:17.797Z,94712.69
2022-11-14T08:19:16.684Z,94712.19
2022-11-14T08:20:13.187Z,94628.06
2022-11-14T08:21:09.639Z,94707.66
2022-11-14T08:22:07.016Z,94711.94
2022-11-14T08:23:04.575Z,94707.06
2022-11-14T08:24:01.084Z,94644.22
2022-11-14T08:24:57.909Z,94709.97
2022-11-14T08:25:54.418Z,94713.38
2022-11-14T08:26:50.925Z,94710.25
2022-11-14T08:27:47.384Z,94721.94
2022-11-14T08:28:43.824Z,94710.31
2022-11-14T08:29:40.249Z,94712.88
2022-11-14T08:30:36.824Z,94715.41
2022-11-14T08:31:33.306Z,94718.03
2022-11-14T08:32:29.788Z,94705.66
2022-11-14T08:33:26.204Z,94711.38
2022-11-14T08:34:23.694Z,94717.34
2022-11-14T08:35:20.378Z,94710.53
2022-11-14T08:36:16.875Z,94713.16
2022-11-14T08:37:13.399Z,94710.06
2022-11-14T08:38:09.914Z,94720.53
2022-11-14T08:39:06.365Z,94717.69
2022-11-14T08:40:02.921Z,94714.75
2022-11-14T08:41:03.094Z,94712.22
2022-11-14T08:41:59.565Z,94716.03
2022-11-14T08:43:00.375Z,94710.69
2022-11-14T08:43:56.865Z,94703.53
2022-11-14T08:44:53.284Z,94708.47
2022-11-14T08:45:49.714Z,94706.81
2022-11-14T08:46:46.149Z,94702.59
2022-11-14T08:47:42.591Z,94706.97
2022-11-14T08:48:39.007Z,94703.22
2022-11-14T08:49:35.460Z,94702.59
2022-11-14T08:50:32.446Z,94705.53
2022-11-14T08:51:28.870Z,94698.66
2022-11-14T08:52:28.365Z,94704.78
2022-11-14T08:53:24.917Z,94705.41
2022-11-14T08:54:21.523Z,94700.59
2022-11-14T08:55:18.401Z,94687.78
2022-11-14T08:56:14.921Z,94697.06
2022-11-14T08:57:15.217Z,94689.13
2022-11-14T08:58:11.768Z,94693.69
2022-11-14T08:59:08.221Z,94693.88
2022-11-14T09:00:04.924Z,94693.53
2022-11-14T09:01:06.034Z,94692.56
2022-11-14T09:02:02.588Z,94686.13
2022-11-14T09:02:59.123Z,94685.06
2022-11-14T09:03:59.832Z,94691.59
2022-11-14T09:04:56.745Z,94673.06
2022-11-14T09:05:53.297Z,94682.72
2022-11-14T09:06:49.838Z,94681.63
2022-11-14T09:07:46.338Z,94678.09
2022-11-14T09:08:42.809Z,94680.84
2022-11-14T09:09:39.659Z,94672.28
2022-11-14T09:10:37.299Z,94669.78
2022-11-14T09:11:34.642Z,94669.31
2022-11-14T09:12:31.153Z,94664.50
2022-11-14T09:13:28.222Z,94669.81
2022-11-14T09:14:24.855Z,94659.38
2022-11-14T09:15:21.344Z,94669.00
2022-11-14T09:16:17.845Z,94666.34
2022-11-14T09:17:14.372Z,94654.97
2022-11-14T09:18:11.538Z,94664.66
2022-11-14T09:19:08.055Z,94676.81
2022-11-14T09:20:04.678Z,94669.88
2022-11-14T09:21:02.079Z,94671.84
2022-11-14T09:21:58.582Z,94669.88
2022-11-14T09:22:57.801Z,94665.28
2022-11-14T09:23:58.836Z,94662.56
2022-11-14T09:24:57.053Z,94667.50
2022-11-14T09:25:54.887Z,94663.09
2022-11-14T09:26:56.603Z,94660.63
2022-11-14T09:27:53.743Z,94665.84
2022-11-14T09:28:50.267Z,94662.53
2022-11-14T09:29:46.942Z,94664.97
2022-11-14T09:30:43.392Z,94668.00
2022-11-14T09:31:39.938Z,94666.91
2022-11-14T09:32:36.388Z,94664.34
2022-11-14T09:33:33.215Z,94669.06
2022-11-14T09:34:29.661Z,94669.38
2022-11-14T09:35:26.127Z,94660.25
2022-11-14T09:36:23.922Z,94665.03
2022-11-14T09:37:20.408Z,94663.84
2022-11-14T09:38:16.922Z,94662.41
2022-11-14T09:39:13.570Z,94655.16
2022-11-14T09:40:12.718Z,94655.72
2022-11-14T09:41:09.330Z,94659.28
2022-11-14T09:42:24.385Z,94654.56
2022-11-14T09:43:34.928Z,94650.38
2022-11-14T09:44:46.546Z,94651.41
2022-11-14T09:45:48.092Z,94652.44
2022-11-14T09:46:47.184Z,94646.22
2022-11-14T09:47:45.088Z,94648.84
2022-11-14T09:48:41.599Z,94645.50
2022-11-14T09:49:45.640Z,94642.38
2022-11-14T09:50:48.162Z,94648.88
2022-11-14T09:51:47.965Z,94645.06
2022-11-14T09:52:49.676Z,94640.59
2022-11-14T09:53:55.706Z,94644.13
2022-11-14T09:54:54.767Z,94642.09
2022-11-14T09:55:52.090Z,94636.09
2022-11-14T09:56:48.581Z,94636.00
2022-11-14T09:57:45.767Z,94638.56
2022-11-14T09:58:42.977Z,94634.63
2022-11-14T09:59:39.519Z,94636.91
2022-11-14T10:00:45.077Z,94635.03
2022-11-14T10:01:56.774Z,94637.34
2022-11-14T10:03:11.883Z,94632.78
2022-11-14T10:04:23.559Z,94635.84
2022-11-14T10:05:23.928Z,94634.72
2022-11-14T10:06:38.893Z,94633.13
2022-11-14T10:07:54.083Z,94636.88
2022-11-14T10:09:09.606Z,94626.88
2022-11-14T10:10:24.863Z,94627.00
2022-11-14T10:11:32.123Z,94623.28
2022-11-14T10:12:57.859Z,94620.69
2022-11-14T10:14:13.196Z,94623.69
2022-11-14T10:15:33.579Z,94613.03
2022-11-14T10:16:46.798Z,94612.00
2022-11-14T10:18:03.514Z,94615.50
2022-11-14T10:19:12.053Z,94610.09
2022-11-14T10:20:24.178Z,94607.16
2022-11-14T10:21:23.492Z,94604.31
2022-11-14T10:22:38.440Z,94609.22
2022-11-14T10:23:37.883Z,94602.81
2022-11-14T10:24:34.325Z,94600.06
2022-11-14T10:25:40.931Z,94592.59
2022-11-14T10:26:49.915Z,94592.19
2022-11-14T10:27:58.461Z,94592.72
2022-11-14T10:29:05.249Z,94597.81
2022-11-14T10:30:08.611Z,94595.00
2022-11-14T10:31:23.812Z,94593.03
2022-11-14T10:32:20.266Z,94590.53
2022-11-14T10:33:38.997Z,94591.22
2022-11-14T10:34:41.850Z,94585.28
2022-11-14T10:35:38.289Z,94586.25
2022-11-14T10:36:43.818Z,94590.16
2022-11-14T10:38:00.578Z,94577.53
2022-11-14T10:39:20.493Z,94582.72
2022-11-14T10:40:22.577Z,94578.00
2022-11-14T10:41:41.743Z,94571.78
2022-11-14T10:42:37.955Z,94577.59
2022-11-14T10:43:37.449Z,94574.88
2022-11-14T10:44:36.984Z,94576.47
2022-11-14T10:45:39.145Z,94571.78
2022-11-14T10:46:41.815Z,94569.25
2022-11-14T10:47:40.861Z,94572.88
2022-11-14T10:48:42.063Z,94571.16
2022-11-14T10:49:39.056Z,94568.97
2022-11-14T10:50:41.636Z,94568.81
2022-11-14T10:51:41.834Z,94564.66
2022-11-14T10:52:39.599Z,94563.56
2022-11-14T10:53:36.101Z,94566.56
2022-11-14T10:54:44.670Z,94556.22
2022-11-14T10:56:03.075Z,94560.53
2022-11-14T10:56:57.598Z,94565.63
2022-11-14T10:57:54.035Z,94563.44
2022-11-14T10:58:50.899Z,94563.03
2022-11-14T10:59:47.593Z,94559.41
2022-11-14T11:00:44.165Z,94553.00
2022-11-14T11:01:45.131Z,94557.00
2022-11-14T11:03:07.718Z,94561.22
2022-11-14T11:04:22.576Z,94553.63
2022-11-14T11:05:20.280Z,94555.97
2022-11-14T11:06:26.678Z,94550.44
2022-11-14T11:07:44.880Z,94558.09
2022-11-14T11:09:00.954Z,94552.84
2022-11-14T11:10:19.509Z,94560.03
2022-11-14T11:11:32.150Z,94551.13
2022-11-14T11:12:43.792Z,94552.38
2022-11-14T11:13:47.704Z,94546.44
2022-11-14T11:14:45.652Z,94549.91
2022-11-14T11:15:42.911Z,94547.50
2022-11-14T11:16:39.341Z,94550.91
2022-11-14T11:17:41.789Z,94548.38
2022-11-14T11:18:39.552Z,94556.44
2022-11-14T11:19:36.048Z,94551.13
2022-11-14T11:20:32.657Z,94545.88
2022-11-14T11:21:46.088Z,94546.00
2022-11-14T11:22:43.520Z,94543.47
2022-11-14T11:23:53.342Z,94540.22